Sainte-Agathe, Canada
Current Conditions -  °F | °C
As of 11:00 AM on Tuesday 21 Oct 2014 (Local Time) from CYMX Reporting Station
Overcast Overcast  
Wind Chill: 37°   Ceiling: 3300
Heat Index: 43°   Visibility: 25mi
Dew Point: 30°   Wind: 10mph
Humidity: 61%   Direction: 40°NE
Pressure: 30.05"   Gusts: 22mph
Location:  46.03°N, 74.28°W
Report Text: CYMX 211500Z 04009G19KT 010V080 25SM OVC033 06/M01 A3005 RMK SC8 SLP177
Loading
Personal Weather Stations






























Interactive Weather Map
Tropical Storm Tracking
New forecast layout! Learn more

10-Day Weather Forecast

Advertisements
Track Severe Weather on mobile